Time;durP1;ratioP1;P1;durP2;ratioP2;P2;SDS_P1;SDS_P2;PMS_P1;PMS_P2;Temp;Humidity;BMP_temperature;BMP_pressure;BME280_temperature;BME280_humidity;BME280_pressure;Samples;Min_cycle;Max_cycle;Signal;HPM_P1;HPM_P2
2023/05/15 00:01:22;;;;;;;20.27;8.40;;;;;;;22.42;44.35;101244.31;4998292;28;20421;-62
2023/05/15 00:03:48;;;;;;;21.45;9.48;;;;;;;22.39;44.42;101248.28;5014913;28;20041;-62
2023/05/15 00:06:13;;;;;;;16.05;8.82;;;;;;;22.35;44.99;101243.44;5014780;28;20034;-62
2023/05/15 00:08:39;;;;;;;16.65;9.43;;;;;;;22.31;44.83;101239.41;4996674;28;20026;-63
2023/05/15 00:11:04;;;;;;;17.50;8.93;;;;;;;22.29;44.27;101242.34;4997218;28;20034;-62
2023/05/15 00:13:30;;;;;;;17.27;9.25;;;;;;;22.26;44.40;101237.25;4997504;28;20117;-62
2023/05/15 00:15:55;;;;;;;14.57;7.80;;;;;;;22.24;45.09;101228.44;4981350;28;20088;-63
2023/05/15 00:18:21;;;;;;;23.38;9.60;;;;;;;22.22;44.31;101230.50;4997085;28;20113;-62
2023/05/15 00:20:46;;;;;;;21.50;9.05;;;;;;;22.17;44.64;101224.78;5015179;28;20105;-62
2023/05/15 00:23:12;;;;;;;18.45;10.60;;;;;;;22.13;44.91;101223.50;5015013;28;20026;-62
2023/05/15 00:25:37;;;;;;;17.08;9.82;;;;;;;22.12;45.27;101221.78;4996850;28;20382;-63
2023/05/15 00:28:02;;;;;;;14.27;9.05;;;;;;;22.06;44.33;101219.84;4997599;28;20026;-62
2023/05/15 00:30:28;;;;;;;25.77;9.55;;;;;;;22.02;45.07;101219.41;4996531;28;20030;-62
2023/05/15 00:32:53;;;;;;;21.52;10.40;;;;;;;22.00;45.04;101212.41;4997210;28;20034;-62
2023/05/15 00:35:19;;;;;;;19.58;9.18;;;;;;;22.00;44.47;101217.88;4977318;28;20044;-62
2023/05/15 00:37:44;;;;;;;17.10;9.73;;;;;;;21.96;45.32;101216.59;4993401;28;20049;-62
2023/05/15 00:40:12;;;;;;;19.70;9.15;;;;;;;21.94;44.98;101205.03;4993931;28;20073;-63
2023/05/15 00:42:38;;;;;;;20.45;10.23;;;;;;;21.92;45.29;101212.53;4993630;28;20034;-62
2023/05/15 00:45:05;;;;;;;21.80;9.20;;;;;;;21.87;45.24;101206.84;4977165;28;20092;-62
2023/05/15 00:47:32;;;;;;;18.20;9.40;;;;;;;21.82;45.19;101207.41;4993211;28;20041;-62
2023/05/15 00:49:57;;;;;;;20.20;9.30;;;;;;;21.78;45.26;101202.50;4977094;28;20099;-63
2023/05/15 00:52:23;;;;;;;21.00;10.90;;;;;;;21.74;45.61;101203.94;4993715;28;20486;-62
2023/05/15 00:54:48;;;;;;;15.32;8.73;;;;;;;21.71;45.80;101202.44;4977112;28;20057;-62
2023/05/15 00:57:14;;;;;;;20.70;10.48;;;;;;;21.69;45.26;101211.84;4993032;28;20034;-62
2023/05/15 00:59:41;;;;;;;18.98;10.30;;;;;;;21.64;45.12;101215.13;4993242;28;20042;-63
2023/05/15 01:02:06;;;;;;;16.75;9.63;;;;;;;21.61;45.60;101214.69;4994401;28;20034;-63
2023/05/15 01:04:31;;;;;;;22.33;10.48;;;;;;;21.57;45.45;101218.84;4993613;28;20037;-63
2023/05/15 01:06:57;;;;;;;19.92;11.02;;;;;;;21.47;45.75;101214.50;4995649;28;20023;-62
2023/05/15 01:09:23;;;;;;;23.35;10.45;;;;;;;21.44;45.70;101214.91;4994506;28;20030;-62
2023/05/15 01:11:50;;;;;;;20.02;10.52;;;;;;;21.43;45.90;101234.19;4994512;28;20035;-63
2023/05/15 01:14:15;;;;;;;18.52;9.75;;;;;;;21.38;45.28;101218.38;4993359;28;20113;-62
2023/05/15 01:16:40;;;;;;;19.17;10.07;;;;;;;21.37;45.02;101227.59;4977409;28;20113;-62
2023/05/15 01:19:06;;;;;;;16.92;9.45;;;;;;;21.33;45.90;101226.28;4976593;28;20093;-62
2023/05/15 01:21:31;;;;;;;22.33;10.75;;;;;;;21.32;45.69;101227.34;4994071;28;20054;-62
2023/05/15 01:24:09;;;;;;;19.20;10.70;;;;;;;21.30;45.32;101237.56;4994216;28;20038;-63
2023/05/15 01:26:44;;;;;;;17.85;10.43;;;;;;;21.28;45.20;101231.47;4994364;28;20554;-62
2023/05/15 01:29:36;;;;;;;17.30;10.55;;;;;;;21.25;45.08;101236.44;4995374;28;20504;-63
2023/05/15 01:32:08;;;;;;;21.23;11.35;;;;;;;21.16;45.14;101232.13;4990890;28;20041;-62
2023/05/15 01:34:57;;;;;;;19.27;10.10;;;;;;;21.14;45.17;101228.72;4992493;28;20054;-62
2023/05/15 01:37:24;;;;;;;18.23;10.48;;;;;;;21.11;45.27;101235.41;4992923;28;20509;-61
2023/05/15 01:39:53;;;;;;;20.80;10.75;;;;;;;21.08;44.99;101238.50;4992688;28;20050;-61
2023/05/15 01:42:18;;;;;;;17.67;9.95;;;;;;;21.07;45.62;101238.66;4976795;28;20037;-62
2023/05/15 01:44:50;;;;;;;17.65;10.02;;;;;;;21.06;45.52;101237.81;4992946;28;20026;-62
2023/05/15 01:47:20;;;;;;;20.63;10.07;;;;;;;21.03;45.24;101231.88;4992979;28;20109;-62
2023/05/15 01:49:47;;;;;;;23.13;10.00;;;;;;;20.96;45.27;101242.72;4992320;28;20057;-62
2023/05/15 01:52:19;;;;;;;18.77;9.30;;;;;;;20.94;45.11;101244.75;4993971;28;20030;-62
2023/05/15 01:54:45;;;;;;;20.83;10.27;;;;;;;20.88;44.96;101245.53;4976299;28;20506;-62
2023/05/15 01:57:11;;;;;;;21.50;9.98;;;;;;;20.84;45.25;101239.59;4976057;28;20121;-63
2023/05/15 01:59:37;;;;;;;21.15;10.23;;;;;;;20.81;45.65;101242.69;4993494;28;20110;-62
2023/05/15 02:02:06;;;;;;;18.27;9.90;;;;;;;20.79;45.97;101243.91;4977253;28;20512;-62
2023/05/15 02:04:32;;;;;;;21.45;9.38;;;;;;;20.76;46.02;101247.84;4992138;28;20058;-62
2023/05/15 02:06:58;;;;;;;22.13;10.68;;;;;;;20.74;45.72;101243.63;4993738;28;20052;-63
2023/05/15 02:09:25;;;;;;;24.23;10.40;;;;;;;20.72;45.50;101240.22;4992216;28;20483;-62
2023/05/15 02:11:50;;;;;;;19.80;10.45;;;;;;;20.71;45.16;101238.53;4992196;28;20577;-63
2023/05/15 02:14:16;;;;;;;20.38;10.38;;;;;;;20.67;45.78;101231.75;4992385;28;20026;-62
2023/05/15 02:16:41;;;;;;;19.52;10.93;;;;;;;20.65;45.59;101239.28;4976064;28;20027;-61
2023/05/15 02:19:07;;;;;;;16.63;10.18;;;;;;;20.65;45.45;101239.28;4975491;28;20034;-62
2023/05/15 02:21:33;;;;;;;19.83;11.18;;;;;;;20.62;45.45;101232.31;4975909;28;20498;-62
2023/05/15 02:23:59;;;;;;;20.45;11.93;;;;;;;20.60;45.78;101230.81;4992190;28;20125;-62
2023/05/15 02:26:40;;;;;;;26.02;12.40;;;;;;;20.60;46.15;101230.81;4993314;28;20122;-63
2023/05/15 02:29:10;;;;;;;24.67;12.18;;;;;;;20.56;45.53;101229.47;4991930;28;20023;-61
2023/05/15 02:31:57;;;;;;;24.67;12.73;;;;;;;20.55;45.98;101233.22;4994401;28;20038;-64
2023/05/15 02:34:45;;;;;;;23.70;12.20;;;;;;;20.53;45.96;101229.84;4996365;28;20450;-62
2023/05/15 02:37:14;;;;;;;26.15;13.77;;;;;;;20.49;45.89;101220.38;4995910;28;20042;-62
2023/05/15 02:39:41;;;;;;;25.48;14.10;;;;;;;20.46;46.12;101218.03;4995703;28;20027;-63
2023/05/15 02:42:06;;;;;;;35.13;14.82;;;;;;;20.46;45.96;101223.47;4996012;28;20402;-63
2023/05/15 02:44:34;;;;;;;25.90;13.68;;;;;;;20.42;46.07;101217.53;4995963;28;20034;-62
2023/05/15 02:47:00;;;;;;;29.83;15.32;;;;;;;20.39;46.02;101217.91;4995533;28;20502;-62
2023/05/15 02:49:25;;;;;;;30.58;13.02;;;;;;;20.39;45.56;101233.38;4979245;28;20030;-61
2023/05/15 02:51:51;;;;;;;26.65;13.35;;;;;;;20.33;45.50;101229.50;4979671;28;20022;-62
2023/05/15 02:54:16;;;;;;;34.33;14.48;;;;;;;20.28;45.70;101216.47;4996924;28;20109;-62
2023/05/15 02:56:42;;;;;;;23.45;13.57;;;;;;;20.27;46.41;101220.19;4979133;28;20073;-63
2023/05/15 02:59:07;;;;;;;25.90;13.65;;;;;;;20.23;46.08;101218.84;4995587;28;20518;-62
2023/05/15 03:01:33;;;;;;;25.83;15.00;;;;;;;20.22;45.70;101222.59;4995640;28;20092;-63
2023/05/15 03:03:58;;;;;;;28.58;14.40;;;;;;;20.19;45.96;101222.94;4996228;28;20430;-62
2023/05/15 03:06:23;;;;;;;32.85;14.20;;;;;;;20.18;45.96;101215.00;4995061;28;20030;-62
2023/05/15 03:08:49;;;;;;;28.70;14.55;;;;;;;20.12;46.42;101204.84;4995368;28;20038;-62
2023/05/15 03:11:15;;;;;;;29.65;15.27;;;;;;;20.11;46.13;101209.41;4996381;28;20065;-62
2023/05/15 03:13:40;;;;;;;28.52;14.88;;;;;;;20.08;46.84;101209.78;4996508;28;20069;-62
2023/05/15 03:16:06;;;;;;;29.13;15.07;;;;;;;20.03;45.92;101201.31;4996828;28;20049;-62
2023/05/15 03:18:31;;;;;;;31.25;15.00;;;;;;;19.99;46.21;101199.97;4996385;28;20084;-62
2023/05/15 03:20:56;;;;;;;32.80;15.20;;;;;;;19.99;46.15;101205.41;4996440;28;20030;-62
2023/05/15 03:23:22;;;;;;;33.15;14.98;;;;;;;19.95;46.45;101197.81;4996630;28;20038;-62
2023/05/15 03:25:47;;;;;;;28.70;15.32;;;;;;;19.91;46.34;101197.31;4995553;28;20035;-62
2023/05/15 03:28:12;;;;;;;29.45;14.20;;;;;;;19.89;46.02;101191.22;4995653;28;20129;-62
2023/05/15 03:30:38;;;;;;;29.00;15.88;;;;;;;19.87;46.17;101195.16;4996082;28;20506;-61
2023/05/15 03:33:03;;;;;;;33.13;15.70;;;;;;;19.84;45.92;101199.09;4994725;28;20088;-62
2023/05/15 03:35:31;;;;;;;35.50;15.93;;;;;;;19.82;46.62;101201.13;4978129;28;20444;-64
2023/05/15 03:37:56;;;;;;;29.30;16.17;;;;;;;19.80;45.66;101200.47;4994834;28;20030;-62
2023/05/15 03:40:21;;;;;;;28.73;14.93;;;;;;;19.75;45.83;101197.44;4979200;28;20366;-63
2023/05/15 03:42:47;;;;;;;31.33;15.18;;;;;;;19.72;46.32;101200.50;4995288;28;20439;-62
2023/05/15 03:45:12;;;;;;;30.25;15.25;;;;;;;19.67;46.26;101201.06;4994643;28;20065;-62
2023/05/15 03:47:37;;;;;;;34.38;15.73;;;;;;;19.65;46.35;101203.09;4994540;28;20045;-62
2023/05/15 03:50:03;;;;;;;32.08;16.17;;;;;;;19.63;46.24;101204.28;4995867;28;20516;-63
2023/05/15 03:52:29;;;;;;;28.40;15.43;;;;;;;19.57;46.56;101216.72;4994751;28;20022;-62
2023/05/15 03:54:54;;;;;;;27.45;15.13;;;;;;;19.56;46.31;101211.47;4996146;28;20434;-62
2023/05/15 03:57:20;;;;;;;35.13;16.17;;;;;;;19.54;46.46;101216.25;4994471;28;20042;-62
2023/05/15 03:59:45;;;;;;;33.55;17.20;;;;;;;19.53;46.36;101214.56;4995567;28;20034;-62
2023/05/15 04:02:10;;;;;;;29.83;15.10;;;;;;;19.49;46.38;101213.19;4995576;28;20109;-62
2023/05/15 04:04:37;;;;;;;39.90;16.55;;;;;;;19.48;46.29;101227.84;4994266;28;20022;-62
2023/05/15 04:07:03;;;;;;;33.08;16.92;;;;;;;19.48;46.58;101216.97;4995902;28;20031;-62
2023/05/15 04:09:28;;;;;;;33.13;17.15;;;;;;;19.46;46.91;101219.00;4977504;28;20037;-62
2023/05/15 04:11:53;;;;;;;30.83;15.68;;;;;;;19.48;46.97;101211.53;4993949;28;20042;-62
2023/05/15 04:14:19;;;;;;;36.97;15.88;;;;;;;19.46;46.27;101219.00;4995240;28;20026;-62
2023/05/15 04:16:45;;;;;;;36.20;17.10;;;;;;;19.43;46.78;101211.22;4995169;28;20530;-63
2023/05/15 04:19:10;;;;;;;31.80;16.30;;;;;;;19.42;46.65;101217.66;4994089;28;20041;-62
2023/05/15 04:21:35;;;;;;;33.50;16.98;;;;;;;19.40;46.23;101219.72;4995156;28;20031;-63
2023/05/15 04:24:01;;;;;;;37.65;16.25;;;;;;;19.37;46.43;101222.75;4993768;28;20085;-62
2023/05/15 04:26:26;;;;;;;25.70;15.65;;;;;;;19.36;46.28;101223.75;4993707;28;20031;-62
2023/05/15 04:28:52;;;;;;;40.60;17.42;;;;;;;19.35;45.97;101217.47;4993678;28;20069;-62
2023/05/15 04:31:17;;;;;;;33.58;16.13;;;;;;;19.35;45.95;101216.63;4994046;28;20023;-62
2023/05/15 04:33:43;;;;;;;40.55;18.13;;;;;;;19.36;46.71;101224.63;4993593;28;20113;-62
2023/05/15 04:36:08;;;;;;;31.13;16.92;;;;;;;19.37;46.38;101220.03;5013101;28;20045;-64
2023/05/15 04:38:34;;;;;;;42.28;18.00;;;;;;;19.40;45.97;101219.72;4997019;28;20030;-62
2023/05/15 04:40:59;;;;;;;39.53;17.50;;;;;;;19.42;46.67;101229.38;5014356;28;20057;-62
2023/05/15 04:43:24;;;;;;;34.95;16.85;;;;;;;19.41;46.58;101215.97;4996799;28;20030;-64
2023/05/15 04:45:50;;;;;;;35.42;18.00;;;;;;;19.46;46.24;101219.84;4997257;28;20060;-61
2023/05/15 04:48:18;;;;;;;38.10;17.85;;;;;;;19.48;46.13;101219.69;4996772;28;20042;-62
2023/05/15 04:50:43;;;;;;;40.10;19.58;;;;;;;19.51;46.12;101224.75;5014465;28;20522;-61
2023/05/15 04:53:09;;;;;;;40.63;17.90;;;;;;;19.49;46.21;101218.63;4996253;28;20073;-62
2023/05/15 04:55:34;;;;;;;42.75;19.27;;;;;;;19.51;46.09;101217.47;4997133;28;20386;-62
2023/05/15 04:57:59;;;;;;;39.67;19.10;;;;;;;19.55;46.38;101220.66;5015012;28;20037;-62
2023/05/15 05:00:25;;;;;;;38.67;19.02;;;;;;;19.57;45.99;101215.91;5014322;28;20517;-62
2023/05/15 05:02:51;;;;;;;35.53;19.00;;;;;;;19.56;46.28;101219.63;5014276;28;20030;-62
2023/05/15 05:05:16;;;;;;;39.47;19.38;;;;;;;19.55;46.11;101216.06;5014308;28;20030;-63
2023/05/15 05:07:44;;;;;;;41.70;19.70;;;;;;;19.55;46.01;101217.94;4996480;28;20033;-62
2023/05/15 05:10:10;;;;;;;41.63;18.77;;;;;;;19.56;46.13;101216.91;4997321;28;20037;-62
2023/05/15 05:12:35;;;;;;;41.30;20.35;;;;;;;19.58;46.04;101217.56;4995493;28;20030;-62
2023/05/15 05:15:01;;;;;;;39.92;20.65;;;;;;;19.65;46.31;101218.56;5013857;28;20448;-62
2023/05/15 05:17:27;;;;;;;40.72;19.92;;;;;;;19.75;45.78;101220.03;4981192;28;20124;-61
2023/05/15 05:19:52;;;;;;;42.08;19.98;;;;;;;19.80;45.51;101222.22;5015492;28;20033;-61
2023/05/15 05:22:17;;;;;;;40.33;19.48;;;;;;;19.86;45.82;101220.66;4997466;28;20493;-63
2023/05/15 05:24:43;;;;;;;44.20;20.67;;;;;;;19.87;46.08;101212.31;5014034;28;20029;-61
2023/05/15 05:27:08;;;;;;;42.63;20.75;;;;;;;19.92;45.94;101209.91;5013747;28;20366;-62
2023/05/15 05:29:33;;;;;;;43.40;20.33;;;;;;;19.96;45.56;101219.38;4979931;28;20092;-61
2023/05/15 05:32:00;;;;;;;42.80;19.60;;;;;;;19.90;45.83;101211.13;4995869;28;20485;-61
2023/05/15 05:34:26;;;;;;;46.60;20.63;;;;;;;19.82;46.08;101224.75;4980005;28;20402;-62
2023/05/15 05:36:52;;;;;;;41.28;19.73;;;;;;;19.76;46.31;101220.88;4980374;28;20088;-63
2023/05/15 05:39:17;;;;;;;51.97;21.23;;;;;;;19.74;45.17;101222.91;4995737;28;20038;-62
2023/05/15 05:41:43;;;;;;;43.72;20.25;;;;;;;19.73;45.96;101229.41;4995996;28;20049;-61
2023/05/15 05:44:08;;;;;;;45.63;22.63;;;;;;;19.74;45.82;101233.78;4996005;28;20072;-61
2023/05/15 05:46:34;;;;;;;47.63;21.30;;;;;;;19.77;45.65;101238.88;4979483;28;20416;-61
2023/05/15 05:48:59;;;;;;;46.13;22.77;;;;;;;19.96;45.70;101238.41;4996263;28;20044;-62
2023/05/15 05:51:24;;;;;;;45.70;20.90;;;;;;;20.13;45.57;101244.59;4995840;28;20417;-62
2023/05/15 05:53:50;;;;;;;40.25;20.05;;;;;;;20.21;45.51;101248.09;5013512;28;20116;-62
2023/05/15 05:56:15;;;;;;;43.05;21.00;;;;;;;20.39;45.18;101257.88;5013173;28;20030;-61
2023/05/15 05:58:40;;;;;;;41.80;21.27;;;;;;;20.47;45.09;101255.06;4994518;28;20038;-61
2023/05/15 06:01:06;;;;;;;42.88;20.58;;;;;;;20.60;44.79;101263.47;4995995;28;20029;-62
2023/05/15 06:03:33;;;;;;;44.30;20.98;;;;;;;20.69;44.74;101263.22;4994506;28;20110;-61
2023/05/15 06:05:58;;;;;;;43.90;20.50;;;;;;;20.81;44.94;101266.34;4994947;28;20042;-63
2023/05/15 06:08:23;;;;;;;48.03;20.75;;;;;;;20.80;44.64;101270.09;4995351;28;20034;-62
2023/05/15 06:10:49;;;;;;;39.97;18.98;;;;;;;20.87;44.63;101271.06;4995261;28;20038;-62
2023/05/15 06:13:14;;;;;;;38.78;18.98;;;;;;;20.89;44.49;101274.44;5013507;28;20052;-62
2023/05/15 06:15:40;;;;;;;42.70;20.80;;;;;;;20.79;44.83;101273.84;5013012;28;20030;-62
2023/05/15 06:18:06;;;;;;;46.22;21.00;;;;;;;20.73;44.44;101269.16;4995301;28;20030;-61
2023/05/15 06:20:31;;;;;;;43.22;20.45;;;;;;;20.83;44.36;101270.56;5012953;28;20041;-62
2023/05/15 06:22:56;;;;;;;41.25;21.00;;;;;;;21.09;44.11;101270.19;4979034;28;20056;-63
2023/05/15 06:25:22;;;;;;;41.78;20.55;;;;;;;21.34;43.40;101268.88;5013293;28;20030;-62
2023/05/15 06:27:47;;;;;;;45.53;21.25;;;;;;;21.50;43.31;101256.91;4979067;28;20110;-63
2023/05/15 06:30:13;;;;;;;41.38;19.73;;;;;;;21.66;43.84;101256.72;4978809;28;20390;-63
2023/05/15 06:32:39;;;;;;;40.90;19.60;;;;;;;21.74;43.21;101256.59;4994894;28;20087;-62
2023/05/15 06:35:05;;;;;;;43.60;20.85;;;;;;;21.91;43.00;101254.53;4994820;28;20121;-62
2023/05/15 06:37:30;;;;;;;39.55;20.58;;;;;;;22.00;42.77;101264.25;4978889;28;20069;-62
2023/05/15 06:39:56;;;;;;;39.85;19.52;;;;;;;22.07;43.15;101264.34;5013376;28;20125;-63
2023/05/15 06:42:21;;;;;;;41.10;19.58;;;;;;;22.17;42.20;101259.41;4995185;28;20516;-63
2023/05/15 06:44:48;;;;;;;39.85;20.42;;;;;;;22.27;42.48;101258.06;4995127;28;20030;-62
2023/05/15 06:47:14;;;;;;;36.65;19.10;;;;;;;22.37;41.87;101263.19;5012431;28;20564;-62
2023/05/15 06:49:39;;;;;;;42.70;20.77;;;;;;;22.50;41.91;101264.16;4994859;28;20029;-63
2023/05/15 06:52:05;;;;;;;37.97;18.65;;;;;;;22.69;42.29;101268.16;5012915;28;20026;-63
2023/05/15 06:54:30;;;;;;;38.30;19.77;;;;;;;22.84;42.24;101266.16;4994805;28;20109;-63
2023/05/15 06:56:55;;;;;;;39.47;19.45;;;;;;;22.98;41.30;101262.47;5012255;28;20044;-62
2023/05/15 06:59:21;;;;;;;37.65;19.25;;;;;;;23.10;41.48;101257.31;5012629;28;20100;-62
2023/05/15 07:01:46;;;;;;;38.67;20.35;;;;;;;23.16;41.35;101262.84;4994932;28;20108;-63
2023/05/15 07:04:11;;;;;;;35.13;19.02;;;;;;;23.27;40.73;101261.41;4978979;28;20029;-63
2023/05/15 07:06:37;;;;;;;40.88;21.50;;;;;;;23.28;41.15;101259.53;4994734;28;20453;-62
2023/05/15 07:09:03;;;;;;;39.22;20.08;;;;;;;23.42;40.99;101262.16;4993751;28;20046;-63
2023/05/15 07:11:29;;;;;;;37.63;19.40;;;;;;;23.59;41.43;101263.50;4995200;28;20383;-62
2023/05/15 07:13:55;;;;;;;42.30;21.65;;;;;;;23.33;41.48;101263.34;5012266;28;20112;-62
2023/05/15 07:16:20;;;;;;;36.30;19.52;;;;;;;23.45;41.17;101261.75;5013409;28;20040;-63
2023/05/15 07:18:45;;;;;;;39.40;18.42;;;;;;;23.76;41.16;101258.53;5015914;28;20080;-63
2023/05/15 07:21:11;;;;;;;34.85;18.52;;;;;;;23.89;40.72;101258.59;4998182;28;20063;-62
2023/05/15 07:23:36;;;;;;;36.78;19.13;;;;;;;24.04;40.64;101255.66;5015986;28;20501;-62
2023/05/15 07:26:02;;;;;;;37.38;18.65;;;;;;;24.24;39.28;101262.06;5016090;28;20452;-62
2023/05/15 07:28:27;;;;;;;35.80;19.35;;;;;;;24.36;39.65;101257.69;4981957;28;20026;-63
2023/05/15 07:30:52;;;;;;;32.97;18.40;;;;;;;24.46;39.40;101255.34;4982277;28;20036;-62
2023/05/15 07:33:18;;;;;;;36.63;18.40;;;;;;;24.56;39.32;101250.31;4998267;28;20041;-62
2023/05/15 07:35:43;;;;;;;32.65;18.73;;;;;;;24.71;38.91;101248.19;4998105;28;20042;-62
2023/05/15 07:38:09;;;;;;;30.45;17.73;;;;;;;24.82;38.81;101244.00;5015859;28;20025;-62
2023/05/15 07:40:34;;;;;;;33.40;17.35;;;;;;;24.95;38.64;101254.13;5015892;28;20101;-62
2023/05/15 07:43:00;;;;;;;39.75;18.10;;;;;;;25.07;38.71;101241.47;4998537;28;20072;-63
2023/05/15 07:45:25;;;;;;;39.22;17.55;;;;;;;25.20;38.59;101242.28;4997907;28;20034;-63
2023/05/15 07:47:51;;;;;;;39.15;19.63;;;;;;;25.29;38.41;101240.16;4997614;28;20497;-63
2023/05/15 07:50:16;;;;;;;38.95;18.88;;;;;;;25.40;38.21;101240.28;4997824;28;20026;-62
2023/05/15 07:52:43;;;;;;;37.75;18.70;;;;;;;25.54;37.68;101238.41;4997847;28;20025;-63
2023/05/15 07:55:09;;;;;;;41.05;17.73;;;;;;;25.65;37.55;101235.00;4998023;28;20061;-63
2023/05/15 07:57:35;;;;;;;28.35;16.83;;;;;;;25.77;37.29;101238.72;4997627;28;20030;-63
2023/05/15 08:00:05;;;;;;;31.17;16.65;;;;;;;25.85;37.64;101232.97;5015080;28;20389;-63
2023/05/15 08:02:31;;;;;;;31.23;16.45;;;;;;;25.92;37.25;101225.56;4982040;28;20477;-63
2023/05/15 08:04:56;;;;;;;26.73;15.35;;;;;;;26.05;36.59;101230.94;4997463;28;20049;-63
2023/05/15 08:07:22;;;;;;;30.13;15.25;;;;;;;26.18;36.54;101229.22;5015386;28;20028;-63
2023/05/15 08:09:47;;;;;;;36.60;16.35;;;;;;;26.28;36.51;101230.41;5015019;28;20041;-63
2023/05/15 08:12:19;;;;;;;26.15;14.95;;;;;;;26.43;36.19;101228.19;5014684;28;20037;-63
2023/05/15 08:14:49;;;;;;;29.00;16.40;;;;;;;26.58;36.23;101233.34;4997725;28;20056;-63
2023/05/15 08:17:15;;;;;;;26.25;16.35;;;;;;;26.74;35.69;101235.56;4997378;28;20026;-63
2023/05/15 08:19:40;;;;;;;30.17;14.65;;;;;;;26.82;35.70;101226.19;4997503;28;20500;-63
2023/05/15 08:22:05;;;;;;;24.23;14.25;;;;;;;26.88;35.65;101225.31;4997875;28;20022;-63
2023/05/15 08:24:31;;;;;;;29.92;14.80;;;;;;;26.99;35.11;101224.56;4996936;28;20038;-63
2023/05/15 08:26:56;;;;;;;26.10;14.55;;;;;;;27.11;34.82;101219.97;5014820;28;20033;-63
2023/05/15 08:29:21;;;;;;;27.25;14.88;;;;;;;27.23;34.75;101225.56;5013768;28;20140;-63
2023/05/15 08:31:47;;;;;;;24.83;15.27;;;;;;;27.32;34.95;101221.44;5014337;28;20034;-63
2023/05/15 08:34:12;;;;;;;23.40;13.80;;;;;;;27.47;34.65;101221.94;5014919;28;20022;-63
2023/05/15 08:36:37;;;;;;;24.90;14.00;;;;;;;27.56;34.51;101217.78;4996784;28;20056;-63
2023/05/15 08:39:03;;;;;;;23.25;13.52;;;;;;;27.70;34.66;101222.03;5014210;28;20026;-64
2023/05/15 08:41:32;;;;;;;25.60;14.00;;;;;;;27.86;33.61;101218.69;5014486;28;20493;-63
2023/05/15 08:43:59;;;;;;;25.65;13.73;;;;;;;28.00;34.20;101220.13;4997151;28;20124;-63
2023/05/15 08:46:25;;;;;;;21.48;13.07;;;;;;;28.12;33.76;101211.94;4980861;28;20117;-66
2023/05/15 08:48:52;;;;;;;20.30;12.70;;;;;;;28.21;34.08;101208.63;4981067;28;20464;-63
2023/05/15 08:51:18;;;;;;;16.30;11.05;;;;;;;28.30;32.86;101207.22;4996580;28;20037;-63
2023/05/15 08:53:44;;;;;;;19.48;11.35;;;;;;;28.41;33.16;101210.22;4996694;28;20034;-64
2023/05/15 08:56:10;;;;;;;18.10;11.73;;;;;;;28.31;32.99;101206.13;4996566;28;20037;-63
2023/05/15 08:58:35;;;;;;;19.83;11.57;;;;;;;28.07;33.08;101215.41;4964336;28;20034;-64
2023/05/15 09:01:02;;;;;;;21.30;11.20;;;;;;;27.93;33.94;101208.38;4996984;28;20030;-63
2023/05/15 09:03:27;;;;;;;18.98;12.00;;;;;;;27.82;33.14;101206.44;4980289;28;20410;-63
2023/05/15 09:05:53;;;;;;;22.50;13.00;;;;;;;27.83;33.52;101210.03;4980148;28;20068;-63
2023/05/15 09:08:21;;;;;;;25.40;13.05;;;;;;;27.91;33.59;101206.94;5014033;28;20085;-63
2023/05/15 09:10:48;;;;;;;18.92;10.55;;;;;;;28.09;32.73;101207.75;4980326;28;20041;-63
2023/05/15 09:13:14;;;;;;;19.40;11.05;;;;;;;28.20;33.38;101208.84;4996769;28;20077;-63
2023/05/15 09:15:39;;;;;;;17.42;11.15;;;;;;;28.39;32.59;101209.63;4996390;28;20057;-64
2023/05/15 09:18:06;;;;;;;22.02;11.48;;;;;;;28.59;32.33;101208.22;5013760;28;20117;-63
2023/05/15 09:20:35;;;;;;;20.90;12.45;;;;;;;28.82;32.52;101211.03;5013758;28;20030;-63
2023/05/15 09:23:02;;;;;;;20.42;13.68;;;;;;;29.08;32.01;101212.47;5013835;28;20460;-63
2023/05/15 09:25:37;;;;;;;19.77;12.35;;;;;;;29.21;32.63;101206.66;4996050;28;20060;-64
2023/05/15 09:28:03;;;;;;;20.15;12.20;;;;;;;29.25;31.71;101202.38;4980599;28;20028;-64
2023/05/15 09:30:29;;;;;;;16.67;10.85;;;;;;;29.37;32.09;101203.19;5013247;28;20042;-64
2023/05/15 09:32:59;;;;;;;15.65;11.07;;;;;;;29.64;31.26;101197.97;4996315;28;20034;-63
2023/05/15 09:35:37;;;;;;;15.63;10.57;;;;;;;29.71;31.44;101190.34;5013675;28;20041;-64
2023/05/15 09:38:07;;;;;;;16.98;10.68;;;;;;;29.76;31.57;101192.41;5014425;28;20385;-64
2023/05/15 09:40:32;;;;;;;19.38;10.45;;;;;;;29.89;31.22;101183.84;5014077;28;20072;-64
2023/05/15 09:42:58;;;;;;;17.67;10.70;;;;;;;29.90;31.13;101188.28;4996936;28;20501;-63
2023/05/15 09:45:25;;;;;;;16.25;10.38;;;;;;;30.00;30.82;101183.78;5015148;28;20030;-64
2023/05/15 09:47:51;;;;;;;15.60;8.48;;;;;;;30.10;30.64;101172.06;4980373;28;20033;-64
2023/05/15 09:50:32;;;;;;;12.38;8.35;;;;;;;30.13;30.24;101179.00;4996475;28;20026;-64
2023/05/15 09:52:58;;;;;;;11.65;8.35;;;;;;;30.13;30.57;101190.06;4994123;28;20045;-65
2023/05/15 09:55:23;;;;;;;12.50;8.32;;;;;;;30.19;29.77;101186.31;4996182;28;20022;-64
2023/05/15 09:58:12;;;;;;;11.38;7.60;;;;;;;30.39;30.57;101179.25;5018037;28;20034;-64
2023/05/15 10:00:39;;;;;;;13.38;9.07;;;;;;;30.56;29.92;101171.78;5006944;28;20037;-64
2023/05/15 10:03:05;;;;;;;13.60;9.05;;;;;;;30.75;30.04;101169.56;4999371;28;20030;-64
2023/05/15 10:05:31;;;;;;;14.52;7.43;;;;;;;30.88;29.88;101171.13;4997110;28;20520;-64
2023/05/15 10:07:57;;;;;;;9.27;7.45;;;;;;;31.01;29.85;101168.91;5012968;28;20034;-64
2023/05/15 10:10:24;;;;;;;12.20;7.60;;;;;;;31.07;29.91;101162.31;4995916;28;20022;-65
2023/05/15 10:12:50;;;;;;;9.02;6.95;;;;;;;31.13;29.84;101163.22;5014322;28;20121;-64
2023/05/15 10:15:20;;;;;;;9.70;6.57;;;;;;;31.27;29.50;101172.81;4980007;28;20034;-64
2023/05/15 10:17:50;;;;;;;13.00;6.80;;;;;;;31.45;29.55;101172.50;4995748;28;20198;-65
2023/05/15 10:20:20;;;;;;;12.02;6.25;;;;;;;31.32;29.51;101174.84;4995368;28;20041;-64
2023/05/15 10:22:49;;;;;;;10.10;7.07;;;;;;;31.43;29.57;101169.16;4995273;28;20034;-64
2023/05/15 10:25:31;;;;;;;10.15;5.50;;;;;;;31.63;29.03;101172.19;4996043;28;20507;-65
2023/05/15 10:27:57;;;;;;;9.60;6.93;;;;;;;31.85;28.77;101172.16;4976486;28;20047;-64
2023/05/15 10:30:24;;;;;;;10.63;7.50;;;;;;;32.01;28.78;101178.72;4976097;28;20045;-65
2023/05/15 10:32:50;;;;;;;10.88;7.72;;;;;;;32.17;28.48;101172.22;4976155;28;20034;-65
2023/05/15 10:35:16;;;;;;;10.90;7.30;;;;;;;32.33;28.73;101176.78;4943666;28;20042;-65
2023/05/15 10:37:41;;;;;;;11.27;7.20;;;;;;;32.50;28.13;101171.94;4959714;28;20026;-65
2023/05/15 10:40:10;;;;;;;10.93;5.88;;;;;;;32.64;27.82;101173.19;4959212;28;20402;-65
2023/05/15 10:42:37;;;;;;;11.20;4.60;;;;;;;32.76;27.71;101157.19;4959819;28;20035;-65
2023/05/15 10:45:03;;;;;;;7.45;4.90;;;;;;;32.92;27.66;101163.66;4975809;28;20050;-64
2023/05/15 10:47:29;;;;;;;8.18;4.63;;;;;;;33.02;27.49;101162.91;4975613;28;20425;-65
2023/05/15 10:49:55;;;;;;;9.52;5.05;;;;;;;33.10;27.71;101156.84;4992888;28;20038;-65
2023/05/15 10:52:21;;;;;;;9.30;4.90;;;;;;;33.25;26.59;101145.84;4961697;28;20026;-65
2023/05/15 10:54:46;;;;;;;10.48;5.38;;;;;;;33.37;26.52;101149.19;4963284;28;20410;-65
2023/05/15 10:57:13;;;;;;;7.00;5.47;;;;;;;33.24;26.81;101149.72;4962913;28;20418;-65
2023/05/15 10:59:40;;;;;;;9.95;5.90;;;;;;;33.28;26.43;101139.72;4981511;28;20034;-65
2023/05/15 11:02:19;;;;;;;7.93;6.10;;;;;;;33.55;27.22;101140.38;4981534;28;20053;-65
2023/05/15 11:04:44;;;;;;;7.65;6.35;;;;;;;33.76;27.27;101147.69;4981347;28;22551;-65
2023/05/15 11:07:12;;;;;;;7.35;6.05;;;;;;;33.93;27.02;101142.72;4979603;28;20026;-65
2023/05/15 11:09:39;;;;;;;8.75;5.47;;;;;;;33.88;26.15;101139.94;4979160;28;20117;-66